Time;durP1;ratioP1;P1;durP2;ratioP2;P2;SDS_P1;SDS_P2;PMS_P1;PMS_P2;Temp;Humidity;BMP_temperature;BMP_pressure;BME280_temperature;BME280_humidity;BME280_pressure;Samples;Min_cycle;Max_cycle;Signal;HPM_P1;HPM_P2
2023/10/30 00:00:35;;;;;;;8.48;5.03;;;;;;;4.63;100.00;101265.50;4916753;28;20417;-60
2023/10/30 00:03:06;;;;;;;8.88;5.00;;;;;;;4.79;98.98;101265.84;4926354;28;20126;-60
2023/10/30 00:05:36;;;;;;;10.55;5.00;;;;;;;4.97;97.75;101261.09;4916956;28;20126;-59
2023/10/30 00:08:06;;;;;;;8.55;4.88;;;;;;;5.15;96.07;101261.50;4919592;28;20637;-60
2023/10/30 00:10:38;;;;;;;8.50;4.47;;;;;;;5.28;92.96;101265.22;4898029;28;20052;-59
2023/10/30 00:13:09;;;;;;;9.35;4.03;;;;;;;5.42;90.89;101260.34;4907453;28;20128;-59
2023/10/30 00:15:39;;;;;;;6.35;3.67;;;;;;;5.56;88.99;101263.19;4909964;28;20057;-60
2023/10/30 00:18:09;;;;;;;6.47;4.38;;;;;;;5.69;87.40;101262.63;4926589;28;20493;-60
2023/10/30 00:20:40;;;;;;;9.05;4.50;;;;;;;5.80;86.43;101260.22;4917270;28;20814;-60
2023/10/30 00:23:10;;;;;;;7.57;4.22;;;;;;;5.86;84.89;101262.06;4926901;28;20059;-60
2023/10/30 00:25:43;;;;;;;7.43;4.00;;;;;;;5.98;84.21;101258.00;4916259;28;20802;-60
2023/10/30 00:28:13;;;;;;;7.80;3.83;;;;;;;6.10;83.90;101259.06;4942111;28;20469;-59
2023/10/30 00:30:43;;;;;;;10.57;4.57;;;;;;;6.16;81.78;101251.38;4919612;28;20066;-59
2023/10/30 00:33:14;;;;;;;5.95;3.95;;;;;;;6.22;81.34;101251.50;4928302;28;20134;-59
2023/10/30 00:35:45;;;;;;;11.70;4.40;;;;;;;6.37;81.56;101246.56;4929178;28;20066;-60
2023/10/30 00:38:16;;;;;;;8.07;3.80;;;;;;;6.52;80.74;101250.28;4919862;28;20069;-60
2023/10/30 00:40:48;;;;;;;7.82;4.13;;;;;;;6.65;79.94;101236.63;4929670;28;20058;-59
2023/10/30 00:43:19;;;;;;;8.30;4.53;;;;;;;6.84;79.74;101245.53;4919755;28;20051;-59
2023/10/30 00:45:49;;;;;;;12.60;4.97;;;;;;;6.96;79.16;101231.88;4928703;28;20051;-59
2023/10/30 00:48:19;;;;;;;9.70;4.32;;;;;;;7.19;78.73;101246.06;4919564;28;20150;-60
2023/10/30 00:50:50;;;;;;;11.85;4.13;;;;;;;7.25;77.27;101240.94;4929274;28;20067;-59
2023/10/30 00:53:21;;;;;;;12.68;4.18;;;;;;;7.33;76.20;101244.50;4919894;28;20138;-59
2023/10/30 00:55:53;;;;;;;8.13;3.35;;;;;;;7.28;75.88;101199.38;4929623;28;20065;-60
2023/10/30 00:58:23;;;;;;;7.00;3.83;;;;;;;7.61;73.79;101233.53;4919514;28;20051;-59
2023/10/30 01:00:54;;;;;;;9.90;3.90;;;;;;;7.68;73.85;101241.44;4929002;28;20529;-59
2023/10/30 01:03:24;;;;;;;14.15;4.47;;;;;;;7.80;73.13;101234.63;4919319;28;20067;-59
2023/10/30 01:05:58;;;;;;;6.53;3.50;;;;;;;7.69;71.67;101227.59;4929098;28;20063;-59
2023/10/30 01:08:29;;;;;;;10.23;3.92;;;;;;;7.85;71.97;101232.94;4919177;28;20055;-60
2023/10/30 01:11:01;;;;;;;7.70;3.35;;;;;;;8.00;72.34;101238.31;4929539;28;20142;-59
2023/10/30 01:13:32;;;;;;;8.50;4.28;;;;;;;7.97;71.93;101218.31;4919062;28;20051;-60
2023/10/30 01:16:03;;;;;;;9.25;3.83;;;;;;;8.17;71.84;101228.91;4928594;28;20047;-59
2023/10/30 01:18:33;;;;;;;11.80;4.03;;;;;;;8.27;71.47;101226.41;4918846;28;20118;-59
2023/10/30 01:21:04;;;;;;;9.00;4.00;;;;;;;8.39;71.39;101221.31;4928646;28;20074;-58
2023/10/30 01:23:34;;;;;;;12.18;4.18;;;;;;;8.26;70.77;101188.19;4919003;28;20044;-59
2023/10/30 01:26:06;;;;;;;10.10;4.65;;;;;;;8.59;70.07;101218.88;4930501;28;20058;-59
2023/10/30 01:28:36;;;;;;;8.35;3.63;;;;;;;8.66;69.42;101219.78;4937820;28;20050;-59
2023/10/30 01:31:07;;;;;;;13.07;4.03;;;;;;;8.77;69.01;101207.69;4931856;28;20062;-58
2023/10/30 01:33:37;;;;;;;6.93;4.28;;;;;;;8.89;68.07;101207.78;4918967;28;20071;-59
2023/10/30 01:36:08;;;;;;;6.90;3.97;;;;;;;8.94;67.70;101205.19;4928575;28;20055;-59
2023/10/30 01:38:39;;;;;;;10.60;4.38;;;;;;;8.96;67.38;101203.44;4918408;28;20063;-59
2023/10/30 01:41:11;;;;;;;10.82;3.90;;;;;;;8.99;68.43;101199.13;4929106;28;20051;-60
2023/10/30 01:43:42;;;;;;;12.40;4.40;;;;;;;9.19;69.15;101193.16;4919196;28;20055;-60
2023/10/30 01:46:12;;;;;;;12.23;4.40;;;;;;;9.27;68.40;101188.84;4928429;28;20110;-59
2023/10/30 01:48:43;;;;;;;5.10;3.10;;;;;;;9.33;69.29;101194.06;4918629;28;20118;-59
2023/10/30 01:51:14;;;;;;;10.73;3.58;;;;;;;9.34;68.43;101180.16;4928391;28;20051;-59
2023/10/30 01:53:44;;;;;;;15.70;4.57;;;;;;;9.40;68.88;101174.94;4918484;28;20134;-59
2023/10/30 01:56:18;;;;;;;9.10;4.00;;;;;;;9.48;69.46;101170.66;4923877;28;20059;-59
2023/10/30 01:58:48;;;;;;;8.48;3.42;;;;;;;9.56;68.86;101175.00;4927928;28;20070;-59
2023/10/30 02:01:19;;;;;;;8.88;3.83;;;;;;;9.57;68.31;101166.31;4918178;28;20145;-59
2023/10/30 02:03:52;;;;;;;13.38;4.40;;;;;;;9.69;68.94;101166.34;4927641;28;20061;-59
2023/10/30 02:06:22;;;;;;;8.50;3.80;;;;;;;9.68;67.51;101164.59;4918503;28;20059;-59
2023/10/30 02:08:53;;;;;;;8.98;4.35;;;;;;;9.70;68.84;101157.63;4927552;28;20055;-59
2023/10/30 02:11:25;;;;;;;12.43;3.92;;;;;;;9.79;68.62;101162.88;4918626;28;20046;-59
2023/10/30 02:13:58;;;;;;;10.82;3.80;;;;;;;9.85;68.13;101152.44;4928228;28;20055;-59
2023/10/30 02:16:28;;;;;;;15.55;4.28;;;;;;;9.91;67.49;101142.00;4918291;28;20058;-58
2023/10/30 02:18:59;;;;;;;10.23;4.40;;;;;;;9.96;68.11;101148.94;4927549;28;20106;-59
2023/10/30 02:21:29;;;;;;;11.57;4.82;;;;;;;9.98;67.05;101148.06;4918205;28;20073;-61
2023/10/30 02:24:07;;;;;;;12.55;4.13;;;;;;;10.04;67.79;101142.00;4927732;28;20067;-59
2023/10/30 02:26:39;;;;;;;9.68;3.97;;;;;;;10.14;67.61;101133.28;4924404;28;20433;-59
2023/10/30 02:29:09;;;;;;;8.45;3.50;;;;;;;10.18;67.81;101129.78;4947075;28;20774;-59
2023/10/30 02:31:40;;;;;;;8.80;3.50;;;;;;;10.21;67.15;101123.69;4918043;28;20047;-60
2023/10/30 02:34:10;;;;;;;9.68;3.65;;;;;;;10.27;67.79;101123.69;4927858;28;20089;-59
2023/10/30 02:36:41;;;;;;;9.85;3.75;;;;;;;10.31;67.37;101118.50;4917254;28;20155;-60
2023/10/30 02:39:12;;;;;;;7.47;3.75;;;;;;;10.34;67.46;101110.66;4927436;28;20143;-60
2023/10/30 02:41:44;;;;;;;8.23;3.50;;;;;;;10.41;67.44;101110.63;4917773;28;20051;-59
2023/10/30 02:44:15;;;;;;;9.82;3.63;;;;;;;10.40;66.11;101106.28;4923382;28;20512;-59
2023/10/30 02:46:46;;;;;;;8.98;4.40;;;;;;;10.50;66.53;101110.63;4927258;28;20071;-59
2023/10/30 02:49:16;;;;;;;8.40;3.85;;;;;;;10.47;66.89;101100.19;4916840;28;20047;-60
2023/10/30 02:51:47;;;;;;;13.57;3.75;;;;;;;10.47;66.82;101101.03;4927328;28;20051;-59
2023/10/30 02:54:17;;;;;;;9.65;3.47;;;;;;;10.29;65.67;101093.25;4917357;28;20055;-60
2023/10/30 02:56:49;;;;;;;6.10;3.25;;;;;;;10.21;66.00;101092.34;4927134;28;20055;-59
2023/10/30 02:59:19;;;;;;;7.45;3.30;;;;;;;10.38;67.65;101089.75;4917385;28;20062;-59
2023/10/30 03:01:50;;;;;;;11.75;3.75;;;;;;;10.47;67.08;101080.16;4927235;28;20047;-59
2023/10/30 03:04:20;;;;;;;7.30;3.13;;;;;;;10.51;67.01;101081.03;4916760;28;20482;-59
2023/10/30 03:06:51;;;;;;;6.05;3.13;;;;;;;10.60;66.97;101080.97;4926959;28;20062;-60
2023/10/30 03:09:21;;;;;;;8.20;3.00;;;;;;;10.67;66.52;101082.69;4917512;28;20059;-60
2023/10/30 03:11:53;;;;;;;10.15;3.90;;;;;;;10.70;65.94;101085.28;4927348;28;20465;-60
2023/10/30 03:14:24;;;;;;;13.40;3.95;;;;;;;10.68;66.25;101068.72;4917188;28;20394;-58
2023/10/30 03:16:54;;;;;;;7.25;3.38;;;;;;;10.65;65.45;101063.53;4927181;28;20145;-59
2023/10/30 03:19:25;;;;;;;5.28;3.05;;;;;;;10.75;66.09;101065.22;4917201;28;20054;-59
2023/10/30 03:21:56;;;;;;;6.97;3.65;;;;;;;10.86;65.85;101064.31;4926379;28;20074;-59
2023/10/30 03:24:26;;;;;;;11.07;3.53;;;;;;;10.88;65.63;101054.72;4917348;28;20102;-59
2023/10/30 03:26:59;;;;;;;9.25;3.33;;;;;;;10.83;65.64;101056.47;4935428;28;20047;-60
2023/10/30 03:29:29;;;;;;;7.32;3.63;;;;;;;10.60;65.54;101060.06;4933760;28;20106;-60
2023/10/30 03:32:00;;;;;;;9.18;3.50;;;;;;;10.42;66.10;101061.00;4927116;28;20485;-56
2023/10/30 03:34:31;;;;;;;8.10;3.72;;;;;;;10.36;65.88;101051.44;4917013;28;20067;-57
2023/10/30 03:37:01;;;;;;;9.18;3.78;;;;;;;10.31;66.66;101042.75;4926461;28;20055;-59
2023/10/30 03:39:32;;;;;;;6.90;3.22;;;;;;;10.15;66.59;100973.09;4916517;28;20453;-59
2023/10/30 03:42:05;;;;;;;7.47;3.20;;;;;;;10.68;66.84;101046.97;4926857;28;20508;-59
2023/10/30 03:44:35;;;;;;;10.85;3.70;;;;;;;10.53;65.38;101003.47;4916716;28;20174;-58
2023/10/30 03:47:06;;;;;;;6.32;3.25;;;;;;;10.42;65.90;100986.97;4926947;28;20061;-59
2023/10/30 03:49:37;;;;;;;8.25;4.63;;;;;;;10.86;65.84;101036.44;4917007;28;20059;-59
2023/10/30 03:52:08;;;;;;;17.95;8.25;;;;;;;10.92;66.03;101025.06;4926247;28;20428;-59
2023/10/30 03:54:39;;;;;;;12.10;5.13;;;;;;;10.93;66.31;101026.78;4897986;28;20059;-59
2023/10/30 03:57:11;;;;;;;10.20;3.80;;;;;;;10.90;65.58;101027.69;4907559;28;20051;-59
2023/10/30 03:59:42;;;;;;;5.72;3.30;;;;;;;10.91;65.13;101023.34;4902519;28;20079;-59
2023/10/30 04:02:12;;;;;;;12.05;6.78;;;;;;;10.91;65.27;101023.34;4930275;28;20489;-59
2023/10/30 04:04:43;;;;;;;7.63;3.33;;;;;;;10.93;65.06;101026.78;4919168;28;20055;-59
2023/10/30 04:07:14;;;;;;;4.97;2.95;;;;;;;10.95;65.06;101022.44;4930050;28;20477;-59
2023/10/30 04:09:44;;;;;;;30.63;14.05;;;;;;;10.93;65.17;101016.34;4920096;28;20151;-59
2023/10/30 04:12:17;;;;;;;7.63;3.70;;;;;;;10.96;65.07;101021.56;4927869;28;20113;-59
2023/10/30 04:14:47;;;;;;;13.25;6.45;;;;;;;10.96;65.12;101021.56;4929303;28;20508;-59
2023/10/30 04:17:18;;;;;;;5.20;3.13;;;;;;;11.05;64.47;101026.72;4920104;28;20047;-59
2023/10/30 04:19:48;;;;;;;26.63;12.25;;;;;;;11.03;64.69;101018.00;4924372;28;20089;-59
2023/10/30 04:22:18;;;;;;;7.72;4.07;;;;;;;11.05;64.64;101018.88;4901407;28;20669;-59
2023/10/30 04:24:49;;;;;;;51.70;24.45;;;;;;;11.07;64.64;101018.88;4910514;28;20833;-59
2023/10/30 04:27:21;;;;;;;5.68;3.85;;;;;;;11.13;64.35;101017.09;4928992;28;20401;-59
2023/10/30 04:29:52;;;;;;;12.68;3.70;;;;;;;11.27;64.77;101021.38;4945486;28;20058;-59
2023/10/30 04:32:23;;;;;;;9.57;3.75;;;;;;;11.40;64.44;101023.00;4919530;28;20474;-59
2023/10/30 04:34:53;;;;;;;12.05;4.15;;;;;;;11.44;63.50;101014.25;4929597;28;20540;-59
2023/10/30 04:37:25;;;;;;;10.30;4.25;;;;;;;11.49;63.70;101022.94;4921497;28;20059;-59
2023/10/30 04:39:55;;;;;;;8.45;3.83;;;;;;;11.48;63.56;101015.94;4924003;28;20532;-60
2023/10/30 04:42:27;;;;;;;12.40;3.60;;;;;;;11.45;63.17;101019.47;4901032;28;20410;-59
2023/10/30 04:44:58;;;;;;;8.05;3.85;;;;;;;11.55;63.35;101015.03;4910080;28;20793;-60
2023/10/30 04:47:28;;;;;;;6.20;3.45;;;;;;;11.60;62.68;101021.09;4900404;28;20777;-59
2023/10/30 04:49:58;;;;;;;9.00;3.05;;;;;;;11.54;63.39;101018.53;4933195;28;20046;-59
2023/10/30 04:52:29;;;;;;;6.45;3.17;;;;;;;11.47;62.54;101011.59;4938591;28;20058;-59
2023/10/30 04:54:59;;;;;;;8.65;3.63;;;;;;;11.45;62.86;101015.97;4948072;28;20404;-59
2023/10/30 04:57:31;;;;;;;5.35;3.30;;;;;;;11.44;62.85;101009.88;4921206;28;20474;-60
2023/10/30 05:00:04;;;;;;;7.05;3.10;;;;;;;11.36;62.38;101016.06;4928845;28;20070;-59
2023/10/30 05:02:35;;;;;;;8.45;3.30;;;;;;;11.27;63.21;101013.50;4919399;28;20396;-59
2023/10/30 05:05:06;;;;;;;6.72;3.30;;;;;;;11.17;63.53;101016.19;4928930;28;20134;-60
2023/10/30 05:07:36;;;;;;;5.38;3.10;;;;;;;11.15;63.76;101012.72;4913579;28;20512;-59
2023/10/30 05:10:07;;;;;;;7.38;3.17;;;;;;;11.14;63.49;101016.22;4918706;28;20055;-60
2023/10/30 05:12:39;;;;;;;9.90;2.92;;;;;;;10.95;63.75;100972.75;4918248;28;20055;-59
2023/10/30 05:15:10;;;;;;;5.53;3.03;;;;;;;11.17;64.20;101021.41;4929318;28;20058;-59
2023/10/30 05:17:41;;;;;;;5.60;3.22;;;;;;;11.18;64.59;101012.72;4922148;28;20074;-60
2023/10/30 05:20:12;;;;;;;12.88;3.60;;;;;;;11.17;64.38;101010.97;4925504;28;20713;-60
2023/10/30 05:22:45;;;;;;;7.25;3.30;;;;;;;11.00;64.07;101007.59;4914620;28;20051;-60
2023/10/30 05:25:15;;;;;;;10.07;3.40;;;;;;;11.12;64.96;101023.19;4915032;28;20047;-59
2023/10/30 05:27:51;;;;;;;6.38;3.30;;;;;;;11.14;64.47;101017.97;4924236;28;20055;-59
2023/10/30 05:30:21;;;;;;;5.32;2.88;;;;;;;11.09;65.09;101018.00;4913314;28;20059;-59
2023/10/30 05:32:52;;;;;;;8.00;4.15;;;;;;;10.97;65.32;101012.84;4924274;28;20063;-58
2023/10/30 05:35:22;;;;;;;9.73;3.03;;;;;;;10.82;65.50;101018.16;4914010;28;20070;-59
2023/10/30 05:37:52;;;;;;;6.55;3.42;;;;;;;10.53;65.82;101006.09;4924585;28;20087;-59
2023/10/30 05:40:23;;;;;;;6.68;3.78;;;;;;;10.36;66.49;101024.47;4913525;28;20050;-59
2023/10/30 05:42:55;;;;;;;7.65;3.72;;;;;;;10.15;67.16;101025.34;4924032;28;20442;-59
2023/10/30 05:45:25;;;;;;;7.85;3.42;;;;;;;9.97;67.72;101026.25;4914435;28;20050;-59
2023/10/30 05:47:55;;;;;;;6.90;3.90;;;;;;;9.78;68.74;101020.16;4924089;28;20736;-59
2023/10/30 05:50:26;;;;;;;9.30;3.65;;;;;;;9.69;69.64;101035.84;4914238;28;20096;-59
2023/10/30 05:52:56;;;;;;;8.40;3.45;;;;;;;9.33;70.36;100977.56;4924018;28;20698;-59
2023/10/30 05:55:27;;;;;;;10.70;3.50;;;;;;;9.52;70.51;101022.81;4914498;28;20062;-59
2023/10/30 05:57:59;;;;;;;8.60;3.95;;;;;;;9.43;71.20;101022.78;4923926;28;20051;-59
2023/10/30 06:00:29;;;;;;;8.25;3.85;;;;;;;9.40;71.70;101017.59;4914437;28;20093;-60
2023/10/30 06:03:00;;;;;;;10.13;3.78;;;;;;;9.38;72.03;101014.97;4923397;28;20390;-59
2023/10/30 06:05:30;;;;;;;9.20;4.40;;;;;;;9.41;72.57;101020.22;4914312;28;20051;-60
2023/10/30 06:08:01;;;;;;;17.88;5.10;;;;;;;9.43;72.99;101028.00;4923654;28;20594;-60
2023/10/30 06:10:31;;;;;;;7.85;3.72;;;;;;;9.43;73.38;101034.09;4914094;28;20058;-60
2023/10/30 06:13:03;;;;;;;11.90;4.22;;;;;;;9.37;73.34;101031.50;4923567;28;20107;-59
2023/10/30 06:15:34;;;;;;;9.60;4.60;;;;;;;9.20;73.98;101025.38;4914088;28;20252;-59
2023/10/30 06:18:05;;;;;;;11.90;4.43;;;;;;;9.13;74.55;101028.84;4923244;28;20153;-59
2023/10/30 06:20:35;;;;;;;10.80;4.65;;;;;;;9.04;75.66;101025.38;4913990;28;20741;-59
2023/10/30 06:23:06;;;;;;;12.88;5.20;;;;;;;8.99;76.00;101027.09;4923939;28;20055;-61
2023/10/30 06:25:39;;;;;;;13.18;4.35;;;;;;;8.93;76.66;101029.66;4913478;28;20130;-60
2023/10/30 06:28:12;;;;;;;9.05;4.50;;;;;;;8.85;77.17;101037.47;4923557;28;20694;-59
2023/10/30 06:30:42;;;;;;;9.02;4.28;;;;;;;8.74;77.44;101033.09;4913503;28;20486;-60
2023/10/30 06:33:13;;;;;;;9.90;4.18;;;;;;;8.26;78.15;100964.28;4923229;28;20063;-59
2023/10/30 06:35:43;;;;;;;12.38;5.05;;;;;;;8.63;78.76;101039.13;4913972;28;20059;-59
2023/10/30 06:38:14;;;;;;;17.08;5.18;;;;;;;8.57;79.30;101033.91;4923978;28;20466;-59
2023/10/30 06:40:44;;;;;;;8.07;4.68;;;;;;;8.50;79.83;101037.34;4913057;28;20062;-59
2023/10/30 06:43:16;;;;;;;11.60;6.03;;;;;;;8.44;80.25;101042.53;4920219;28;20553;-59
2023/10/30 06:45:47;;;;;;;14.07;5.70;;;;;;;8.37;80.89;101052.00;4922628;28;20051;-59
2023/10/30 06:48:17;;;;;;;9.75;6.00;;;;;;;8.33;81.50;101049.38;4912665;28;20055;-60
2023/10/30 06:50:49;;;;;;;12.15;5.30;;;;;;;8.21;81.84;101045.84;4922618;28;20082;-59
2023/10/30 06:53:19;;;;;;;11.50;6.03;;;;;;;8.19;82.50;101039.75;4909974;28;20055;-60
2023/10/30 06:55:50;;;;;;;11.52;6.15;;;;;;;8.08;82.85;101049.22;4920300;28;20064;-60
2023/10/30 06:58:23;;;;;;;10.23;4.90;;;;;;;8.01;83.42;101047.44;4909525;28;20115;-60
2023/10/30 07:00:53;;;;;;;9.32;5.50;;;;;;;7.95;83.83;101048.28;4918972;28;20151;-60
2023/10/30 07:03:23;;;;;;;12.20;4.93;;;;;;;7.82;84.37;101045.59;4909725;28;21182;-60
2023/10/30 07:05:54;;;;;;;13.05;6.13;;;;;;;7.79;85.03;101049.03;4919474;28;20126;-60
2023/10/30 07:08:24;;;;;;;12.32;4.97;;;;;;;7.78;85.52;101049.88;4911137;28;20078;-59
2023/10/30 07:10:55;;;;;;;10.98;6.07;;;;;;;7.66;86.13;101053.28;4917319;28;20990;-60
2023/10/30 07:13:27;;;;;;;19.55;6.80;;;;;;;7.52;86.77;101047.94;4910915;28;20050;-59
2023/10/30 07:15:58;;;;;;;23.17;8.38;;;;;;;7.49;87.27;101047.06;4918068;28;20206;-59
2023/10/30 07:18:29;;;;;;;10.68;5.80;;;;;;;7.18;87.70;100999.97;4910662;28;20490;-60
2023/10/30 07:21:00;;;;;;;11.10;4.60;;;;;;;7.34;88.17;101048.66;4919546;28;20059;-60
2023/10/30 07:23:30;;;;;;;11.98;5.43;;;;;;;7.28;88.71;101048.59;4910658;28;20145;-60
2023/10/30 07:26:01;;;;;;;15.10;5.82;;;;;;;7.25;89.60;101048.56;4921051;28;20437;-59
2023/10/30 07:28:32;;;;;;;11.32;5.70;;;;;;;7.22;89.93;101053.75;4910948;28;20078;-60
2023/10/30 07:31:03;;;;;;;8.60;5.32;;;;;;;7.17;90.11;101055.41;4915924;28;20110;-60
2023/10/30 07:33:34;;;;;;;9.95;4.97;;;;;;;7.14;90.61;101065.78;4907647;28;21626;-60
2023/10/30 07:36:04;;;;;;;7.97;4.68;;;;;;;7.02;90.86;101055.25;4917932;28;20055;-60
2023/10/30 07:38:36;;;;;;;9.88;4.82;;;;;;;7.08;91.16;101076.09;4913203;28;20051;-60
2023/10/30 07:41:07;;;;;;;9.73;4.97;;;;;;;7.03;91.16;101072.59;4923790;28;20387;-60
2023/10/30 07:43:39;;;;;;;12.50;4.80;;;;;;;6.91;91.76;101071.59;4915096;28;21283;-60
2023/10/30 07:46:13;;;;;;;8.05;4.72;;;;;;;6.90;92.17;101067.25;4923380;28;20051;-60
2023/10/30 07:48:44;;;;;;;9.52;4.47;;;;;;;6.86;92.07;101075.88;4914119;28;20746;-59
2023/10/30 07:51:14;;;;;;;12.63;4.80;;;;;;;6.80;92.14;101075.78;4919236;28;20047;-59
2023/10/30 07:53:45;;;;;;;10.30;4.78;;;;;;;6.68;92.25;101071.31;4923000;28;20560;-59
2023/10/30 07:56:15;;;;;;;7.72;4.10;;;;;;;6.61;92.13;101079.00;4914364;28;20051;-60
2023/10/30 07:58:47;;;;;;;9.73;4.32;;;;;;;6.48;92.46;101078.84;4925716;28;20446;-60
2023/10/30 08:01:20;;;;;;;7.80;4.22;;;;;;;6.38;93.08;101082.16;4915933;28;20572;-60
2023/10/30 08:03:50;;;;;;;9.48;4.20;;;;;;;6.33;93.57;101083.81;4925505;28;20534;-60
2023/10/30 08:06:21;;;;;;;7.68;5.28;;;;;;;6.30;93.61;101088.97;4915736;28;20066;-60
2023/10/30 08:08:51;;;;;;;9.00;4.43;;;;;;;6.26;93.72;101085.50;4925447;28;20059;-60
2023/10/30 08:11:22;;;;;;;6.18;3.80;;;;;;;6.26;93.92;101092.38;4915691;28;20196;-60
2023/10/30 08:13:54;;;;;;;7.60;3.97;;;;;;;6.24;93.79;101086.28;4925935;28;20102;-60
2023/10/30 08:16:24;;;;;;;10.10;4.05;;;;;;;6.24;93.75;101088.88;4915242;28;20548;-60
2023/10/30 08:18:55;;;;;;;5.95;3.58;;;;;;;6.26;93.58;101087.19;4922400;28;20061;-60
2023/10/30 08:21:26;;;;;;;5.05;3.63;;;;;;;6.21;92.92;101087.09;4913322;28;20778;-60
2023/10/30 08:23:56;;;;;;;8.10;3.58;;;;;;;6.23;92.74;101089.75;4925702;28;20113;-60
2023/10/30 08:26:28;;;;;;;6.47;3.53;;;;;;;6.13;92.66;101074.88;4915713;28;20787;-61
2023/10/30 08:29:00;;;;;;;7.13;3.30;;;;;;;6.17;92.02;101087.06;4925879;28;20446;-61
2023/10/30 08:31:30;;;;;;;4.78;3.08;;;;;;;6.17;91.90;101092.25;4915773;28;20057;-60
2023/10/30 08:34:01;;;;;;;5.03;3.17;;;;;;;6.14;91.58;101092.19;4925121;28;20051;-60
2023/10/30 08:36:31;;;;;;;8.43;3.22;;;;;;;6.10;91.61;101090.41;4915499;28;20057;-60
2023/10/30 08:39:02;;;;;;;9.38;3.00;;;;;;;6.09;91.71;101099.94;4925043;28;20363;-60
2023/10/30 08:41:33;;;;;;;7.88;3.50;;;;;;;6.06;91.44;101099.84;4915350;28;20055;-61
2023/10/30 08:44:06;;;;;;;7.00;3.10;;;;;;;6.07;91.44;101104.22;4925840;28;20485;-61
2023/10/30 08:46:36;;;;;;;6.15;2.83;;;;;;;6.03;91.42;101102.41;4914355;28;20059;-61
2023/10/30 08:49:07;;;;;;;6.90;3.03;;;;;;;6.02;91.72;101103.28;4923618;28;20055;-60
2023/10/30 08:51:42;;;;;;;9.13;2.90;;;;;;;5.88;91.66;101079.66;4906639;28;20051;-60
2023/10/30 08:54:31;;;;;;;5.13;2.85;;;;;;;5.97;91.99;101100.59;4908400;28;20187;-61
2023/10/30 08:57:02;;;;;;;5.22;2.90;;;;;;;5.94;92.29;101089.28;4921246;28;20063;-60
2023/10/30 08:59:47;;;;;;;5.55;3.03;;;;;;;6.05;92.55;101093.81;4910940;28;20065;-61
2023/10/30 09:02:17;;;;;;;4.72;2.72;;;;;;;6.03;92.29;101090.31;4911797;28;20117;-61
2023/10/30 09:04:48;;;;;;;5.60;2.97;;;;;;;6.05;93.09;101092.94;4923861;28;20070;-61
2023/10/30 09:07:18;;;;;;;6.22;4.00;;;;;;;6.04;92.54;101094.66;4914093;28;20046;-61
2023/10/30 09:09:50;;;;;;;10.38;3.30;;;;;;;5.99;92.78;101098.91;4924322;28;20087;-61
2023/10/30 09:12:20;;;;;;;10.65;4.05;;;;;;;5.97;92.91;101095.41;4913852;28;20055;-61
2023/10/30 09:14:53;;;;;;;15.82;8.02;;;;;;;6.01;93.59;101098.91;4926847;28;20490;-61
2023/10/30 09:17:25;;;;;;;57.58;24.90;;;;;;;5.89;92.88;101094.41;4922880;28;20078;-60
2023/10/30 09:19:56;;;;;;;29.75;14.07;;;;;;;5.59;91.84;101077.47;4927430;28;20149;-60
2023/10/30 09:22:26;;;;;;;71.97;22.60;;;;;;;5.37;91.57;101072.78;4918382;28;20059;-60
2023/10/30 09:24:57;;;;;;;56.53;18.48;;;;;;;5.18;91.59;101069.81;4928167;28;20759;-60
2023/10/30 09:27:28;;;;;;;125.63;46.75;;;;;;;5.00;91.95;101074.69;4920786;28;20054;-60
2023/10/30 09:30:00;;;;;;;48.95;19.60;;;;;;;4.83;92.20;101070.88;4927918;28;20078;-60
2023/10/30 09:32:31;;;;;;;49.80;19.27;;;;;;;4.75;92.76;101071.59;4918775;28;20069;-61
2023/10/30 09:35:03;;;;;;;47.28;16.70;;;;;;;4.65;92.78;101064.47;4928253;28;20059;-60
2023/10/30 09:37:33;;;;;;;40.42;14.73;;;;;;;4.60;93.07;101063.53;4918267;28;20055;-60
2023/10/30 09:40:05;;;;;;;30.92;11.13;;;;;;;4.54;93.37;101058.19;4928240;28;20047;-60
2023/10/30 09:42:37;;;;;;;28.10;10.50;;;;;;;4.53;94.01;101066.81;4918964;28;20214;-60
2023/10/30 09:45:11;;;;;;;17.45;7.78;;;;;;;4.52;94.31;101054.72;4928250;28;20077;-60
2023/10/30 09:47:42;;;;;;;21.60;7.35;;;;;;;4.53;94.99;101056.47;4917997;28;20074;-61
2023/10/30 09:50:13;;;;;;;11.43;6.22;;;;;;;4.50;95.16;101062.44;4922101;28;20397;-61
2023/10/30 09:52:44;;;;;;;17.30;7.45;;;;;;;4.49;95.87;101054.63;4911560;28;20047;-61
2023/10/30 09:55:16;;;;;;;13.80;6.70;;;;;;;4.53;96.86;101064.22;4917815;28;20062;-61
2023/10/30 09:57:49;;;;;;;26.35;8.98;;;;;;;4.57;97.45;101063.47;4921858;28;20728;-61
2023/10/30 10:00:22;;;;;;;20.33;9.98;;;;;;;4.62;97.67;101061.84;4910166;28;20490;-61
2023/10/30 10:02:53;;;;;;;24.27;9.07;;;;;;;4.59;97.60;101056.56;4923469;28;20580;-60
2023/10/30 10:05:24;;;;;;;17.63;10.00;;;;;;;4.57;97.62;101058.28;4913995;28;20644;-61
2023/10/30 10:07:55;;;;;;;21.92;10.68;;;;;;;4.56;97.84;101061.69;4923095;28;20047;-61
2023/10/30 10:10:26;;;;;;;28.17;11.82;;;;;;;4.52;97.56;101065.09;4913980;28;20695;-61
2023/10/30 10:12:59;;;;;;;27.60;13.50;;;;;;;4.47;97.68;101056.34;4923183;28;20081;-61
2023/10/30 10:15:32;;;;;;;34.50;14.43;;;;;;;4.46;98.04;101062.34;4914136;28;20679;-61
2023/10/30 10:18:03;;;;;;;36.10;14.50;;;;;;;4.42;97.94;101063.13;4923145;28;20062;-61
2023/10/30 10:20:33;;;;;;;39.03;14.82;;;;;;;4.40;97.85;101054.47;4910934;28;20057;-61
2023/10/30 10:23:05;;;;;;;27.52;14.07;;;;;;;4.41;98.16;101051.03;4921978;28;20059;-61
2023/10/30 10:25:35;;;;;;;31.75;14.13;;;;;;;4.37;98.15;101063.03;4912185;28;20564;-62
2023/10/30 10:28:06;;;;;;;29.65;14.65;;;;;;;4.30;98.13;101064.59;4921439;28;20082;-62
2023/10/30 10:30:42;;;;;;;30.88;13.50;;;;;;;4.26;98.20;101062.78;4910116;28;20055;-61
2023/10/30 10:33:14;;;;;;;35.42;14.10;;;;;;;4.32;98.47;101057.75;4920972;28;20150;-61
2023/10/30 10:35:45;;;;;;;32.03;15.02;;;;;;;4.32;98.53;101052.59;4910365;28;20051;-60
2023/10/30 10:38:16;;;;;;;36.30;16.63;;;;;;;4.35;98.76;101056.09;4912067;28;20051;-60
2023/10/30 10:40:48;;;;;;;31.02;14.82;;;;;;;4.24;99.09;101054.13;4921324;28;20055;-61
2023/10/30 10:43:20;;;;;;;31.30;15.80;;;;;;;4.24;99.50;101038.63;4909736;28;20055;-60
2023/10/30 10:45:53;;;;;;;31.17;15.25;;;;;;;4.27;99.73;101056.78;4920104;28;20059;-60
2023/10/30 10:48:25;;;;;;;37.25;15.80;;;;;;;4.26;99.94;101055.03;4909265;28;20117;-61
2023/10/30 10:50:57;;;;;;;32.00;14.88;;;;;;;4.17;99.93;101047.09;4916101;28;20055;-60
2023/10/30 10:53:30;;;;;;;31.92;15.95;;;;;;;4.22;100.00;101050.63;4911271;28;20085;-61
2023/10/30 10:56:05;;;;;;;49.13;17.50;;;;;;;4.21;100.00;101053.19;4923201;28;20150;-61
2023/10/30 10:58:42;;;;;;;37.58;15.90;;;;;;;4.16;100.00;101066.00;4909518;28;20060;-60
2023/10/30 11:01:18;;;;;;;38.30;16.88;;;;;;;4.08;100.00;101057.22;4920880;28;20161;-61
2023/10/30 11:03:51;;;;;;;34.28;15.95;;;;;;;4.13;100.00;101065.94;4909310;28;20154;-61
2023/10/30 11:06:28;;;;;;;34.33;16.73;;;;;;;4.07;100.00;101058.06;4906400;28;20067;-61
2023/10/30 11:09:05;;;;;;;31.08;15.45;;;;;;;4.08;100.00;101054.63;4919040;28;20146;-61
2023/10/30 11:11:39;;;;;;;30.48;14.98;;;;;;;4.07;100.00;101063.22;4907998;28;20068;-61
2023/10/30 11:14:25;;;;;;;36.13;14.18;;;;;;;3.97;100.00;101058.66;4920612;28;20526;-61
2023/10/30 11:17:02;;;;;;;33.20;15.30;;;;;;;4.05;100.00;101063.19;4919312;28;20153;-61
2023/10/30 11:19:37;;;;;;;34.15;16.33;;;;;;;3.99;100.00;101052.69;4906157;28;20061;-61
2023/10/30 11:22:07;;;;;;;32.85;16.25;;;;;;;3.98;100.00;101070.78;4921945;28;20122;-61
2023/10/30 11:24:38;;;;;;;35.58;15.80;;;;;;;3.97;100.00;101071.59;4913244;28;20561;-61
2023/10/30 11:27:40;;;;;;;37.30;16.70;;;;;;;3.99;100.00;101067.34;4922451;28;20136;-61
2023/10/30 11:30:12;;;;;;;36.55;15.15;;;;;;;4.04;100.00;101065.72;4922233;28;20059;-61
2023/10/30 11:32:58;;;;;;;37.15;17.98;;;;;;;4.04;100.00;101055.38;4912992;28;20059;-62
2023/10/30 11:35:30;;;;;;;34.88;17.00;;;;;;;4.01;100.00;101039.81;4913292;28;20150;-61
2023/10/30 11:38:01;;;;;;;41.45;17.05;;;;;;;3.94;100.00;101027.56;4922605;28;20516;-61
2023/10/30 11:40:31;;;;;;;37.45;18.33;;;;;;;3.86;100.00;101019.63;4912630;28;20063;-60
2023/10/30 11:43:09;;;;;;;41.80;18.70;;;;;;;3.72;100.00;101032.25;4921877;28;20433;-61